createdAt,value
2019-05-29T00:01:42.201Z,100465.23
2019-05-29T00:04:10.328Z,100465.14
2019-05-29T00:06:38.531Z,100460.83
2019-05-29T00:09:08.118Z,100462.27
2019-05-29T00:11:36.324Z,100473.89
2019-05-29T00:14:17.861Z,100474.41
2019-05-29T00:16:34.315Z,100482.95
2019-05-29T00:19:02.495Z,100478.30
2019-05-29T00:21:30.628Z,100484.45
2019-05-29T00:23:58.782Z,100484.39
2019-05-29T00:26:27.173Z,100493.28
2019-05-29T00:28:55.337Z,100497.66
2019-05-29T00:31:23.470Z,100498.78
2019-05-29T00:33:51.651Z,100493.28
2019-05-29T00:36:19.743Z,100501.89
2019-05-29T00:38:47.870Z,100501.28
2019-05-29T00:41:17.126Z,100511.22
2019-05-29T00:43:45.291Z,100509.71
2019-05-29T00:46:13.492Z,100509.62
2019-05-29T00:48:41.616Z,100519.24
2019-05-29T00:51:10.928Z,100523.16
2019-05-29T00:53:39.095Z,100528.72
2019-05-29T00:56:08.431Z,100533.14
2019-05-29T00:58:36.648Z,100530.05
2019-05-29T01:01:04.875Z,100536.25
2019-05-29T01:03:32.985Z,100534.08
2019-05-29T01:06:01.174Z,100538.33
2019-05-29T01:08:29.304Z,100546.09
2019-05-29T01:10:57.549Z,100551.77
2019-05-29T01:13:25.722Z,100551.46
2019-05-29T01:15:53.858Z,100553.53
2019-05-29T01:18:22.389Z,100556.63
2019-05-29T01:20:50.632Z,100561.56
2019-05-29T01:23:18.770Z,100568.66
2019-05-29T01:25:46.896Z,100563.02
2019-05-29T01:28:15.061Z,100574.48
2019-05-29T01:30:43.168Z,100577.44
2019-05-29T01:33:11.320Z,100582.72
2019-05-29T01:35:39.494Z,100586.13
2019-05-29T01:38:07.595Z,100582.86
2019-05-29T01:40:35.766Z,100585.69
2019-05-29T01:43:03.869Z,100588.72
2019-05-29T01:45:31.967Z,100590.72
2019-05-29T01:48:00.081Z,100589.68
2019-05-29T01:50:28.230Z,100597.53
2019-05-29T01:52:56.322Z,100597.02
2019-05-29T01:55:24.412Z,100593.93
2019-05-29T01:57:52.517Z,100603.99
2019-05-29T02:00:23.997Z,100604.71
2019-05-29T02:02:52.377Z,100602.53
2019-05-29T02:05:20.509Z,100608.58
2019-05-29T02:07:48.645Z,100608.36
2019-05-29T02:10:18.095Z,100608.62
2019-05-29T02:12:46.441Z,100605.78
2019-05-29T02:15:23.743Z,100607.52
2019-05-29T02:17:44.565Z,100615.17
2019-05-29T02:20:12.892Z,100615.81
2019-05-29T02:22:41.031Z,100615.94
2019-05-29T02:25:09.459Z,100610.73
2019-05-29T02:27:37.573Z,100617.67
2019-05-29T02:30:07.817Z,100617.75
2019-05-29T02:32:36.021Z,100624.15
2019-05-29T02:35:04.314Z,100626.79
2019-05-29T02:37:32.368Z,100630.80
2019-05-29T02:40:00.487Z,100638.81
2019-05-29T02:42:29.193Z,100632.78
2019-05-29T02:44:57.396Z,100640.63
2019-05-29T02:47:26.124Z,100639.93
2019-05-29T02:49:55.373Z,100645.59
2019-05-29T02:52:24.278Z,100642.92
2019-05-29T02:54:52.408Z,100644.23
2019-05-29T02:57:20.822Z,100648.54
2019-05-29T02:59:48.918Z,100652.18
2019-05-29T03:02:17.036Z,100662.42
2019-05-29T03:04:45.208Z,100662.13
2019-05-29T03:07:13.306Z,100669.93
2019-05-29T03:09:41.563Z,100673.94
2019-05-29T03:12:09.709Z,100672.13
2019-05-29T03:14:37.791Z,100678.32
2019-05-29T03:17:05.922Z,100679.14
2019-05-29T03:19:34.673Z,100677.87
2019-05-29T03:22:03.028Z,100685.93
2019-05-29T03:24:32.765Z,100688.80
2019-05-29T03:27:01.167Z,100688.27
2019-05-29T03:29:29.986Z,100691.47
2019-05-29T03:31:58.403Z,100691.02
2019-05-29T03:34:28.496Z,100699.88
2019-05-29T03:36:56.360Z,100695.22
2019-05-29T03:39:26.212Z,100712.77
2019-05-29T03:41:54.558Z,100706.52
2019-05-29T03:44:22.733Z,100712.05
2019-05-29T03:46:50.846Z,100717.24
2019-05-29T03:49:18.987Z,100725.20
2019-05-29T03:51:47.097Z,100724.45
2019-05-29T03:54:15.273Z,100725.08
2019-05-29T03:56:43.487Z,100727.89
2019-05-29T03:59:11.673Z,100728.42
2019-05-29T04:01:39.843Z,100736.30
2019-05-29T04:04:07.956Z,100735.83
2019-05-29T04:06:37.466Z,100739.81
2019-05-29T04:09:07.326Z,100738.90
2019-05-29T04:11:37.673Z,100747.86
2019-05-29T04:14:05.830Z,100751.86
2019-05-29T04:16:52.779Z,100757.65
2019-05-29T04:19:04.841Z,100766.28
2019-05-29T04:21:34.231Z,100764.66
2019-05-29T04:24:04.596Z,100762.56
2019-05-29T04:26:36.215Z,100764.30
2019-05-29T04:29:04.640Z,100766.03
2019-05-29T04:31:34.365Z,100770.52
2019-05-29T04:34:02.874Z,100776.18
2019-05-29T04:36:32.816Z,100637.23
2019-05-29T04:39:01.040Z,100776.42
2019-05-29T04:41:30.830Z,100792.95
2019-05-29T04:43:59.071Z,100794.58
2019-05-29T04:46:27.258Z,100796.52
2019-05-29T04:48:55.411Z,100805.48
2019-05-29T04:51:23.556Z,100803.55
2019-05-29T04:53:51.818Z,100810.48
2019-05-29T04:56:19.956Z,100817.56
2019-05-29T04:58:48.154Z,100824.23
2019-05-29T05:01:16.270Z,100820.04
2019-05-29T05:03:44.478Z,100828.73
2019-05-29T05:06:12.603Z,100827.67
2019-05-29T05:08:40.767Z,100828.20
2019-05-29T05:11:48.453Z,100833.75
2019-05-29T05:14:16.578Z,100841.95
2019-05-29T05:16:45.834Z,100837.85
2019-05-29T05:19:16.373Z,100842.85
2019-05-29T05:21:43.858Z,100843.83
2019-05-29T05:24:12.010Z,100839.27
2019-05-29T05:26:40.503Z,100843.91
2019-05-29T05:29:10.079Z,100848.71
2019-05-29T05:31:38.571Z,100852.92
2019-05-29T05:34:06.716Z,100846.20
2019-05-29T05:36:34.905Z,100861.83
2019-05-29T05:39:03.164Z,100864.61
2019-05-29T05:41:31.327Z,100857.78
2019-05-29T05:43:59.491Z,100870.38
2019-05-29T05:46:27.623Z,100868.64
2019-05-29T05:48:55.847Z,100865.38
2019-05-29T05:51:23.963Z,100866.94
2019-05-29T05:53:52.105Z,100870.52
2019-05-29T05:56:20.254Z,100875.05
2019-05-29T05:58:48.450Z,100876.02
2019-05-29T06:01:16.599Z,100882.52
2019-05-29T06:03:44.780Z,100895.10
2019-05-29T06:06:12.965Z,100887.89
2019-05-29T06:08:42.294Z,100884.04
2019-05-29T06:11:10.785Z,100886.93
2019-05-29T06:13:38.942Z,100890.38
2019-05-29T06:16:07.122Z,100892.55
2019-05-29T06:18:36.446Z,100897.45
2019-05-29T06:21:04.720Z,100898.98
2019-05-29T06:23:32.866Z,100891.89
2019-05-29T06:26:00.999Z,100898.77
2019-05-29T06:28:29.150Z,100898.81
2019-05-29T06:30:57.433Z,100891.08
2019-05-29T06:33:25.622Z,100897.62
2019-05-29T06:35:53.792Z,100896.53
2019-05-29T06:38:22.006Z,100900.89
2019-05-29T06:40:50.107Z,100903.38
2019-05-29T06:43:23.227Z,100904.28
2019-05-29T06:45:51.769Z,100914.42
2019-05-29T06:48:46.625Z,100913.19
2019-05-29T06:51:08.887Z,100915.73
2019-05-29T06:53:37.730Z,100912.38
2019-05-29T06:56:06.040Z,100912.92
2019-05-29T06:58:34.273Z,100916.22
2019-05-29T07:01:02.493Z,100913.91
2019-05-29T07:03:30.614Z,100923.41
2019-05-29T07:05:58.787Z,100922.52
2019-05-29T07:08:38.375Z,100919.27
2019-05-29T07:10:56.888Z,100921.19
2019-05-29T07:13:25.038Z,100933.48
2019-05-29T07:15:53.231Z,100930.72
2019-05-29T07:18:21.399Z,100932.95
2019-05-29T07:20:49.586Z,100932.82
2019-05-29T07:23:17.764Z,100937.69
2019-05-29T07:25:47.311Z,100941.61
2019-05-29T07:28:15.631Z,100950.00
2019-05-29T07:30:49.782Z,100950.95
2019-05-29T07:33:13.859Z,100958.45
2019-05-29T07:35:42.024Z,100968.38
2019-05-29T07:38:10.200Z,100966.11
2019-05-29T07:40:39.083Z,100962.61
2019-05-29T07:43:08.351Z,100969.30
2019-05-29T07:45:37.760Z,100970.51
2019-05-29T07:48:06.373Z,100972.58
2019-05-29T07:50:34.613Z,100975.05
2019-05-29T07:55:38.476Z,100977.22
2019-05-29T07:58:06.701Z,100983.84
2019-05-29T08:00:37.957Z,100985.00
2019-05-29T08:03:05.226Z,100987.51
2019-05-29T08:05:33.456Z,100989.27
2019-05-29T08:08:02.963Z,100997.18
2019-05-29T08:10:31.165Z,100993.08
2019-05-29T08:12:59.643Z,100992.23
2019-05-29T08:15:27.946Z,100993.37
2019-05-29T08:17:56.133Z,100998.02
2019-05-29T08:20:24.368Z,100990.14
2019-05-29T08:22:52.571Z,100993.92
2019-05-29T08:25:20.774Z,100992.73
2019-05-29T08:27:49.044Z,100990.77
2019-05-29T08:30:18.548Z,100996.75
2019-05-29T08:32:47.058Z,100999.91
2019-05-29T08:35:15.173Z,101001.88
2019-05-29T08:37:43.409Z,101005.94
2019-05-29T08:40:11.887Z,101010.31
2019-05-29T08:42:41.077Z,101010.45
2019-05-29T08:45:10.051Z,101006.50
2019-05-29T08:47:38.274Z,101010.87
2019-05-29T08:50:17.891Z,101006.56
2019-05-29T08:52:35.555Z,101004.22
2019-05-29T08:55:03.646Z,101006.61
2019-05-29T08:57:31.761Z,101004.59
2019-05-29T08:59:59.979Z,101001.97
2019-05-29T09:02:28.176Z,101008.89
2019-05-29T09:04:56.438Z,101002.92
2019-05-29T09:07:24.563Z,101017.42
2019-05-29T09:09:53.345Z,101020.72
2019-05-29T09:12:21.579Z,101021.98
2019-05-29T09:14:49.756Z,101021.77
2019-05-29T09:17:18.491Z,101024.00
2019-05-29T09:19:46.683Z,101024.71
2019-05-29T09:22:15.012Z,101027.78
2019-05-29T09:24:43.127Z,101027.23
2019-05-29T09:27:11.402Z,101027.44
2019-05-29T09:29:39.643Z,101028.43
2019-05-29T09:32:07.859Z,101032.11
2019-05-29T09:34:36.148Z,101031.89
2019-05-29T09:37:04.380Z,101034.58
2019-05-29T09:39:32.579Z,101042.87
2019-05-29T09:42:00.783Z,101045.84
2019-05-29T09:44:38.397Z,101042.66
2019-05-29T09:46:57.919Z,101045.38
2019-05-29T09:49:26.139Z,101044.97
2019-05-29T09:51:54.414Z,101048.52
2019-05-29T09:54:22.779Z,101047.84
2019-05-29T09:56:50.976Z,101048.66
2019-05-29T09:59:20.451Z,101053.05
2019-05-29T10:01:48.659Z,101051.77
2019-05-29T10:04:16.898Z,101060.73
2019-05-29T10:06:45.067Z,101060.26
2019-05-29T10:09:13.254Z,101059.63
2019-05-29T10:11:41.518Z,101058.50
2019-05-29T10:14:09.702Z,101058.54
2019-05-29T10:16:37.834Z,101059.59
2019-05-29T10:19:06.156Z,101062.42
2019-05-29T10:21:40.827Z,101061.33
2019-05-29T10:24:06.283Z,101058.66
2019-05-29T10:26:34.539Z,101054.89
2019-05-29T10:29:08.205Z,101057.70
2019-05-29T10:31:32.679Z,101050.86
2019-05-29T10:34:00.870Z,101053.75
2019-05-29T10:36:29.135Z,101061.42
2019-05-29T10:38:57.305Z,101060.56
2019-05-29T10:41:25.514Z,101058.70
2019-05-29T10:43:53.711Z,101058.86
2019-05-29T10:46:21.913Z,101064.41
2019-05-29T10:48:53.807Z,101060.12
2019-05-29T10:51:19.948Z,101059.88
2019-05-29T10:53:50.395Z,101061.39
2019-05-29T10:56:21.105Z,101068.79
2019-05-29T10:58:53.790Z,101062.44
2019-05-29T11:01:17.975Z,101065.27
2019-05-29T11:03:47.235Z,101068.31
2019-05-29T11:06:15.478Z,101064.80
2019-05-29T11:08:43.650Z,101064.31
2019-05-29T11:11:12.109Z,101062.62
2019-05-29T11:13:40.357Z,101056.61
2019-05-29T11:16:08.578Z,101054.97
2019-05-29T11:18:36.735Z,101057.37
2019-05-29T11:21:05.034Z,101060.63
2019-05-29T11:23:33.558Z,101056.27
2019-05-29T11:26:01.790Z,101063.31
2019-05-29T11:28:30.697Z,101057.82
2019-05-29T11:31:05.317Z,101058.64
2019-05-29T11:33:28.870Z,101057.71
2019-05-29T11:36:07.338Z,101061.20
2019-05-29T11:38:26.961Z,101064.13
2019-05-29T11:41:20.224Z,101060.17
2019-05-29T11:43:25.212Z,101063.70
2019-05-29T11:45:55.119Z,101063.06
2019-05-29T11:48:23.345Z,101066.28
2019-05-29T11:50:52.108Z,101061.20
2019-05-29T11:53:20.506Z,101058.42
2019-05-29T11:55:48.755Z,101061.45
2019-05-29T11:58:30.560Z,101063.15
2019-05-29T12:00:46.873Z,101054.20
2019-05-29T12:03:15.104Z,101046.81
2019-05-29T12:05:43.311Z,101051.85
2019-05-29T12:08:11.536Z,101054.11
2019-05-29T12:10:39.752Z,101049.77
2019-05-29T12:13:08.401Z,101049.60
2019-05-29T12:15:36.655Z,101057.22
2019-05-29T12:18:22.761Z,101057.16
2019-05-29T12:20:34.953Z,101051.09
2019-05-29T12:23:26.213Z,101052.38
2019-05-29T12:25:33.118Z,101044.27
2019-05-29T12:28:01.453Z,101049.98
2019-05-29T12:30:30.444Z,101045.53
2019-05-29T12:32:59.172Z,101039.08
2019-05-29T12:35:27.559Z,101049.23
2019-05-29T12:37:55.709Z,101049.25
2019-05-29T12:40:24.268Z,101048.37
2019-05-29T12:42:53.554Z,101044.78
2019-05-29T12:45:21.965Z,101051.66
2019-05-29T12:47:50.158Z,101045.64
2019-05-29T12:50:18.826Z,101044.38
2019-05-29T12:52:47.737Z,101049.40
2019-05-29T12:55:16.594Z,101042.94
2019-05-29T12:57:45.018Z,101049.09
2019-05-29T13:00:14.161Z,101044.82
2019-05-29T13:02:42.564Z,101046.64
2019-05-29T13:05:19.759Z,101042.84
2019-05-29T13:07:42.598Z,101043.55
2019-05-29T13:10:27.218Z,101039.30
2019-05-29T13:12:43.406Z,100933.71
2019-05-29T13:15:12.570Z,101036.66
2019-05-29T13:17:40.804Z,101039.05
2019-05-29T13:20:20.943Z,101040.81
2019-05-29T13:22:39.303Z,101042.92
2019-05-29T13:25:08.235Z,101046.23
2019-05-29T13:27:36.435Z,101038.62
2019-05-29T13:30:08.172Z,101032.42
2019-05-29T13:32:36.188Z,101038.41
2019-05-29T13:35:06.298Z,101028.58
2019-05-29T13:37:34.601Z,101032.89
2019-05-29T13:40:05.500Z,101041.55
2019-05-29T13:42:32.708Z,101031.82
2019-05-29T13:45:07.725Z,101033.56
2019-05-29T13:47:30.913Z,101032.80
2019-05-29T13:50:03.591Z,101036.78
2019-05-29T13:52:29.005Z,101039.73
2019-05-29T13:54:57.341Z,101040.39
2019-05-29T13:57:25.559Z,101029.98
2019-05-29T13:59:53.769Z,101031.54
2019-05-29T14:02:22.201Z,101028.14
2019-05-29T14:04:50.433Z,101020.63
2019-05-29T14:07:19.051Z,101024.22
2019-05-29T14:09:47.407Z,101024.39
2019-05-29T14:12:15.591Z,101017.78
2019-05-29T14:14:43.787Z,101021.77
2019-05-29T14:17:12.903Z,101020.07
2019-05-29T14:19:41.109Z,101021.00
2019-05-29T14:22:09.366Z,101019.94
2019-05-29T14:24:37.554Z,101021.55
2019-05-29T14:27:05.754Z,101020.58
2019-05-29T14:29:33.936Z,101025.06
2019-05-29T14:32:02.960Z,101013.33
2019-05-29T14:34:31.329Z,101017.73
2019-05-29T14:36:59.593Z,101010.13
2019-05-29T14:39:27.785Z,101023.91
2019-05-29T14:41:55.988Z,101022.04
2019-05-29T14:44:24.207Z,101019.70
2019-05-29T14:46:52.407Z,101018.70
2019-05-29T14:49:20.609Z,101015.80
2019-05-29T14:51:49.069Z,101019.08
2019-05-29T14:54:17.231Z,101029.80
2019-05-29T14:56:45.729Z,101018.08
2019-05-29T14:59:13.961Z,101019.87
2019-05-29T15:01:42.239Z,101024.33
2019-05-29T15:04:12.698Z,101025.28
2019-05-29T15:06:40.368Z,101026.08
2019-05-29T15:09:09.620Z,101027.75
2019-05-29T15:11:37.915Z,101041.05
2019-05-29T15:14:06.415Z,101034.05
2019-05-29T15:16:34.557Z,101036.17
2019-05-29T15:19:02.794Z,101035.41
2019-05-29T15:21:31.005Z,101040.06
2019-05-29T15:23:59.205Z,101035.19
2019-05-29T15:26:27.354Z,101038.45
2019-05-29T15:28:55.534Z,101041.83
2019-05-29T15:31:23.693Z,101040.52
2019-05-29T15:33:51.926Z,101036.73
2019-05-29T15:36:20.107Z,101041.44
2019-05-29T15:38:48.330Z,101039.81
2019-05-29T15:41:16.887Z,101038.72
2019-05-29T15:43:49.041Z,101035.53
2019-05-29T15:46:16.400Z,101040.48
2019-05-29T15:48:45.054Z,101048.78
2019-05-29T15:51:13.321Z,101043.88
2019-05-29T15:53:41.448Z,101049.86
2019-05-29T15:56:21.361Z,101047.11
2019-05-29T15:58:39.559Z,101040.47
2019-05-29T16:01:07.795Z,101036.98
2019-05-29T16:03:36.006Z,101035.89
2019-05-29T16:06:04.612Z,101043.66
2019-05-29T16:08:32.903Z,101044.09
2019-05-29T16:11:01.113Z,101035.33
2019-05-29T16:13:29.366Z,101036.69
2019-05-29T16:15:57.561Z,101042.09
2019-05-29T16:18:29.003Z,101032.56
2019-05-29T16:20:55.721Z,101037.49
2019-05-29T16:23:35.137Z,101035.39
2019-05-29T16:25:53.792Z,101030.13
2019-05-29T16:28:21.962Z,101034.36
2019-05-29T16:30:50.431Z,101032.38
2019-05-29T16:33:19.469Z,101031.37
2019-05-29T16:35:46.896Z,101031.09
2019-05-29T16:38:15.965Z,101036.63
2019-05-29T16:40:43.411Z,101037.63
2019-05-29T16:43:11.935Z,101036.50
2019-05-29T16:45:40.304Z,101030.14
2019-05-29T16:48:08.507Z,101038.19
2019-05-29T16:50:36.839Z,101033.01
2019-05-29T16:53:05.053Z,101040.27
2019-05-29T16:55:33.330Z,101035.47
2019-05-29T16:58:01.547Z,101037.91
2019-05-29T17:00:30.280Z,101040.85
2019-05-29T17:02:58.416Z,101046.95
2019-05-29T17:05:26.676Z,101051.65
2019-05-29T17:07:54.817Z,101055.44
2019-05-29T17:10:34.490Z,101051.48
2019-05-29T17:13:02.655Z,101049.24
2019-05-29T17:15:30.928Z,101049.41
2019-05-29T17:17:59.079Z,101046.14
2019-05-29T17:20:40.393Z,101035.84
2019-05-29T17:23:08.597Z,101041.60
2019-05-29T17:25:36.893Z,101041.05
2019-05-29T17:28:05.179Z,101037.58
2019-05-29T17:30:33.554Z,101036.00
2019-05-29T17:33:01.816Z,101038.92
2019-05-29T17:35:30.153Z,101036.58
2019-05-29T17:37:58.335Z,101034.55
2019-05-29T17:40:26.609Z,101044.44
2019-05-29T17:42:54.787Z,101042.72
2019-05-29T17:45:25.717Z,101034.53
2019-05-29T17:47:53.058Z,101038.08
2019-05-29T17:50:23.128Z,101040.84
2019-05-29T17:52:51.248Z,101033.04
2019-05-29T17:55:21.764Z,101030.14
2019-05-29T17:57:49.336Z,101025.48
2019-05-29T18:00:20.533Z,101024.02
2019-05-29T18:02:52.418Z,101024.34
2019-05-29T18:05:20.410Z,101025.71
2019-05-29T18:07:48.787Z,101024.70
2019-05-29T18:10:19.338Z,101013.93
2019-05-29T18:12:47.259Z,101015.89
2019-05-29T18:15:17.205Z,101020.75
2019-05-29T18:17:45.418Z,101015.33
2019-05-29T18:20:15.116Z,101018.04
2019-05-29T18:22:43.680Z,101011.92
2019-05-29T18:25:12.071Z,101020.13
2019-05-29T18:27:40.290Z,101020.80
2019-05-29T18:30:09.213Z,101026.06
2019-05-29T18:32:37.399Z,101023.55
2019-05-29T18:35:06.253Z,101022.97
2019-05-29T18:37:34.449Z,101029.91
2019-05-29T18:40:02.721Z,101033.27
2019-05-29T18:42:31.028Z,101028.57
2019-05-29T18:44:59.267Z,101029.89
2019-05-29T18:47:27.443Z,101024.67
2019-05-29T18:49:55.696Z,101026.13
2019-05-29T18:52:23.936Z,101028.16
2019-05-29T18:54:52.260Z,101030.55
2019-05-29T18:57:20.895Z,101025.70
2019-05-29T18:59:49.252Z,101030.45
2019-05-29T19:02:17.490Z,101034.41
2019-05-29T19:04:45.747Z,101035.80
2019-05-29T19:07:13.916Z,101037.58
2019-05-29T19:09:42.198Z,101035.91
2019-05-29T19:12:10.421Z,101041.88
2019-05-29T19:14:38.599Z,101046.31
2019-05-29T19:17:06.922Z,101047.38
2019-05-29T19:19:35.065Z,101050.33
2019-05-29T19:22:03.293Z,101047.70
2019-05-29T19:24:32.683Z,101053.82
2019-05-29T19:27:01.051Z,101063.51
2019-05-29T19:29:29.317Z,101063.98
2019-05-29T19:31:57.525Z,101069.02
2019-05-29T19:34:25.769Z,101069.21
2019-05-29T19:36:54.006Z,101070.91
2019-05-29T19:39:23.694Z,101071.42
2019-05-29T19:41:52.156Z,101080.65
2019-05-29T19:44:20.507Z,101078.76
2019-05-29T19:46:54.120Z,101078.63
2019-05-29T19:49:19.123Z,101083.22
2019-05-29T19:51:47.555Z,101078.92
2019-05-29T19:54:15.801Z,101084.89
2019-05-29T19:56:44.151Z,101092.06
2019-05-29T19:59:12.550Z,101093.70
2019-05-29T20:01:40.800Z,101099.66
2019-05-29T20:04:09.284Z,101105.98
2019-05-29T20:06:37.677Z,101101.76
2019-05-29T20:09:07.773Z,101105.80
2019-05-29T20:11:35.620Z,101110.66
2019-05-29T20:14:07.425Z,101111.62
2019-05-29T20:16:34.172Z,101103.30
2019-05-29T20:19:02.622Z,101102.33
2019-05-29T20:21:30.893Z,101104.34
2019-05-29T20:23:59.354Z,101110.28
2019-05-29T20:26:29.056Z,101105.16
2019-05-29T20:28:57.834Z,101112.62
2019-05-29T20:31:26.110Z,101103.45
2019-05-29T20:33:55.270Z,101107.75
2019-05-29T20:36:23.746Z,101104.66
2019-05-29T20:38:52.064Z,101107.89
2019-05-29T20:41:20.694Z,101104.58
2019-05-29T20:43:49.050Z,101104.48
2019-05-29T20:46:17.562Z,101098.78
2019-05-29T20:48:45.878Z,101098.78
2019-05-29T20:51:14.348Z,101112.50
2019-05-29T20:53:42.545Z,101111.47
2019-05-29T20:56:10.865Z,101106.86
2019-05-29T20:58:39.881Z,101100.47
2019-05-29T21:01:08.143Z,101113.43
2019-05-29T21:03:36.599Z,101112.04
2019-05-29T21:06:05.643Z,101115.91
2019-05-29T21:08:34.777Z,101119.53
2019-05-29T21:11:03.413Z,101119.61
2019-05-29T21:13:33.205Z,101118.36
2019-05-29T21:16:01.579Z,101119.08
2019-05-29T21:18:29.880Z,101133.76
2019-05-29T21:20:58.726Z,101127.70
2019-05-29T21:23:27.030Z,101130.71
2019-05-29T21:25:55.397Z,101126.79
2019-05-29T21:28:39.028Z,101130.55
2019-05-29T21:30:53.624Z,101128.85
2019-05-29T21:33:21.821Z,101134.50
2019-05-29T21:35:50.365Z,101134.50
2019-05-29T21:38:18.793Z,101132.32
2019-05-29T21:40:47.267Z,101135.28
2019-05-29T21:43:15.667Z,101132.53
2019-05-29T21:45:44.929Z,101136.20
2019-05-29T21:48:13.637Z,101137.92
2019-05-29T21:50:43.308Z,101137.30
2019-05-29T21:53:11.577Z,101132.77
2019-05-29T21:55:41.478Z,101136.68
2019-05-29T21:58:09.895Z,101134.69
2019-05-29T22:00:48.272Z,101128.83
2019-05-29T22:03:16.939Z,101133.45
2019-05-29T22:05:46.886Z,101132.12
2019-05-29T22:08:15.132Z,101126.77
2019-05-29T22:10:43.842Z,101127.66
2019-05-29T22:13:12.635Z,101124.09
2019-05-29T22:15:40.895Z,101127.42
2019-05-29T22:18:09.197Z,101128.52
2019-05-29T22:20:37.543Z,101131.30
2019-05-29T22:23:06.102Z,101122.98
2019-05-29T22:25:34.818Z,101126.33
2019-05-29T22:28:03.763Z,101119.34
2019-05-29T22:30:32.351Z,101126.74
2019-05-29T22:33:01.904Z,101125.23
2019-05-29T22:35:30.260Z,101129.05
2019-05-29T22:38:00.039Z,101128.42
2019-05-29T22:40:28.572Z,101127.78
2019-05-29T22:42:57.625Z,101126.79
2019-05-29T22:45:26.348Z,101125.22
2019-05-29T22:47:55.691Z,101120.78
2019-05-29T22:50:24.727Z,101125.05
2019-05-29T22:52:53.794Z,101122.51
2019-05-29T22:55:22.579Z,101123.55
2019-05-29T22:57:51.861Z,101124.83
2019-05-29T23:00:21.253Z,101120.00
2019-05-29T23:02:49.738Z,101112.06
2019-05-29T23:05:18.054Z,101116.44
2019-05-29T23:07:46.282Z,101114.39
2019-05-29T23:10:14.818Z,101107.69
2019-05-29T23:12:43.249Z,101105.86
2019-05-29T23:15:11.884Z,101099.66
2019-05-29T23:17:40.130Z,101100.91
2019-05-29T23:20:08.857Z,101096.52
2019-05-29T23:22:37.560Z,101095.14
2019-05-29T23:25:06.528Z,101093.62
2019-05-29T23:27:34.874Z,101090.53
2019-05-29T23:30:03.435Z,101084.92
2019-05-29T23:32:31.540Z,101084.28
2019-05-29T23:34:59.682Z,101088.35
2019-05-29T23:37:27.948Z,101086.19
2019-05-29T23:39:57.114Z,101087.63
2019-05-29T23:42:25.322Z,101084.64
2019-05-29T23:44:54.147Z,101080.31
2019-05-29T23:47:23.390Z,101082.22
2019-05-29T23:49:51.574Z,101085.76
2019-05-29T23:52:19.824Z,101076.86
2019-05-29T23:54:48.101Z,101080.22
2019-05-29T23:57:16.439Z,101085.49
2019-05-29T23:59:44.588Z,101080.53
